Huvudsida
METAR-TAF:

METAR-TAF

Flygplatser :

Djibouti, Djibouti

latitud: 11-33N, longitud: 043-10E, höjd: 49 m

Aktuellt väderrapport

Denna rapport gjordes för 1 timme och 13 minuter sedan, klockan 07:00 UTC
Vind 5 kt från ost
Temperatur 37°C
Fuktighet 45%
Tryck 1006 hPa
Sikt: 8000 m
Få moln på en höjd av 26600 ft
torrdis

METAR: HDAM 270700Z 09005KT 8000 HZ FEW266 37/23 Q1006

Tid: 11:13 (08:13 UTC)

Väderprognos

Denna rapport gjordes för 9 timmar och 13 minuter sedan, klockan 23:00 UTC
Prognos gäller från 27 kl. 00 UTC till 27 kl. 24 UTC
Vind 3 kt varierande vindriktning
Sikt 10 km eller mer
Spridda moln på en höjd av 2000 ft
Blir
från 27 kl. 06 UTC till 27 kl. 12 UTC
Vind 10 kt från ost
Få moln på en höjd av 2300 ft

TAF: HDAM 262300Z 2700/2724 VRB03KT 9999 SCT020 BECMG 2706/2712 08010KT FEW023

Aktuella väderrapporter och prognoser från 4000 flygplatser (METAR- och TAF-rapporter).

De tillgängliga stationerna syns som gula och röda prickar på kartan.

För musen över prickarna för att se namnen på stationerna.

Klicka sedan för att få väderrapporter och prognoser.

För att ändra kartan: Klicka på de gröna knapparna med ett svart kors på för att zooma in; den gröna knappen med ett streck på för att zooma ut; eller på de gröna pilarna för angränsande kartor.


METAR-TAF: